sensor_id;sensor_type;location;lat;lon;timestamp;P1;durP1;ratioP1;P2;durP2;ratioP2
50683;SDS011;36654;45.042;38.994;2024-01-11T00:00:30;34.33;;;14.13;;
50683;SDS011;36654;45.042;38.994;2024-01-11T00:02:56;37.17;;;13.70;;
50683;SDS011;36654;45.042;38.994;2024-01-11T00:05:22;35.85;;;13.68;;
50683;SDS011;36654;45.042;38.994;2024-01-11T00:07:47;32.35;;;13.38;;
50683;SDS011;36654;45.042;38.994;2024-01-11T00:10:13;37.67;;;15.63;;
50683;SDS011;36654;45.042;38.994;2024-01-11T00:12:41;32.53;;;14.82;;
50683;SDS011;36654;45.042;38.994;2024-01-11T00:15:07;34.42;;;14.20;;
50683;SDS011;36654;45.042;38.994;2024-01-11T00:17:33;33.08;;;14.75;;
50683;SDS011;36654;45.042;38.994;2024-01-11T00:19:58;32.67;;;13.63;;
50683;SDS011;36654;45.042;38.994;2024-01-11T00:22:24;40.65;;;14.77;;
50683;SDS011;36654;45.042;38.994;2024-01-11T00:24:50;38.17;;;15.50;;
50683;SDS011;36654;45.042;38.994;2024-01-11T00:27:15;34.25;;;15.40;;
50683;SDS011;36654;45.042;38.994;2024-01-11T00:29:41;38.00;;;15.57;;
50683;SDS011;36654;45.042;38.994;2024-01-11T00:32:07;37.20;;;15.88;;
50683;SDS011;36654;45.042;38.994;2024-01-11T00:34:32;41.67;;;16.25;;
50683;SDS011;36654;45.042;38.994;2024-01-11T00:36:58;34.60;;;14.23;;
50683;SDS011;36654;45.042;38.994;2024-01-11T00:39:24;38.60;;;15.20;;
50683;SDS011;36654;45.042;38.994;2024-01-11T00:41:50;37.88;;;15.77;;
50683;SDS011;36654;45.042;38.994;2024-01-11T00:44:16;36.15;;;13.35;;
50683;SDS011;36654;45.042;38.994;2024-01-11T00:46:42;37.35;;;14.50;;
50683;SDS011;36654;45.042;38.994;2024-01-11T00:49:08;48.30;;;16.83;;
50683;SDS011;36654;45.042;38.994;2024-01-11T00:51:33;43.47;;;16.73;;
50683;SDS011;36654;45.042;38.994;2024-01-11T00:53:59;38.08;;;15.45;;
50683;SDS011;36654;45.042;38.994;2024-01-11T00:56:25;37.30;;;14.85;;
50683;SDS011;36654;45.042;38.994;2024-01-11T00:58:51;36.95;;;16.02;;
50683;SDS011;36654;45.042;38.994;2024-01-11T01:01:17;42.63;;;16.77;;
50683;SDS011;36654;45.042;38.994;2024-01-11T01:03:42;44.20;;;15.95;;
50683;SDS011;36654;45.042;38.994;2024-01-11T01:06:08;41.03;;;16.95;;
50683;SDS011;36654;45.042;38.994;2024-01-11T01:08:34;38.28;;;16.02;;
50683;SDS011;36654;45.042;38.994;2024-01-11T01:10:59;39.30;;;16.80;;
50683;SDS011;36654;45.042;38.994;2024-01-11T01:13:25;40.40;;;16.10;;
50683;SDS011;36654;45.042;38.994;2024-01-11T01:15:51;42.10;;;16.10;;
50683;SDS011;36654;45.042;38.994;2024-01-11T01:18:16;36.45;;;15.57;;
50683;SDS011;36654;45.042;38.994;2024-01-11T01:20:42;42.55;;;16.88;;
50683;SDS011;36654;45.042;38.994;2024-01-11T01:23:08;40.08;;;15.95;;
50683;SDS011;36654;45.042;38.994;2024-01-11T01:25:34;40.70;;;15.90;;
50683;SDS011;36654;45.042;38.994;2024-01-11T01:27:59;36.65;;;16.85;;
50683;SDS011;36654;45.042;38.994;2024-01-11T01:30:26;47.63;;;16.83;;
50683;SDS011;36654;45.042;38.994;2024-01-11T01:32:52;39.72;;;16.00;;
50683;SDS011;36654;45.042;38.994;2024-01-11T01:35:18;38.42;;;16.50;;
50683;SDS011;36654;45.042;38.994;2024-01-11T01:37:44;41.53;;;15.70;;
50683;SDS011;36654;45.042;38.994;2024-01-11T01:40:10;38.97;;;15.48;;
50683;SDS011;36654;45.042;38.994;2024-01-11T01:42:40;38.78;;;16.27;;
50683;SDS011;36654;45.042;38.994;2024-01-11T01:45:10;32.63;;;15.15;;
50683;SDS011;36654;45.042;38.994;2024-01-11T01:47:36;41.33;;;15.80;;
50683;SDS011;36654;45.042;38.994;2024-01-11T01:50:05;46.55;;;16.52;;
50683;SDS011;36654;45.042;38.994;2024-01-11T01:52:32;34.13;;;14.35;;
50683;SDS011;36654;45.042;38.994;2024-01-11T01:55:00;30.58;;;13.23;;
50683;SDS011;36654;45.042;38.994;2024-01-11T01:57:26;29.05;;;12.63;;
50683;SDS011;36654;45.042;38.994;2024-01-11T01:59:53;26.92;;;11.27;;
50683;SDS011;36654;45.042;38.994;2024-01-11T02:02:19;25.92;;;11.48;;
50683;SDS011;36654;45.042;38.994;2024-01-11T02:04:46;22.30;;;10.65;;
50683;SDS011;36654;45.042;38.994;2024-01-11T02:07:11;22.25;;;10.52;;
50683;SDS011;36654;45.042;38.994;2024-01-11T02:09:38;19.63;;;9.93;;
50683;SDS011;36654;45.042;38.994;2024-01-11T02:12:05;23.10;;;9.25;;
50683;SDS011;36654;45.042;38.994;2024-01-11T02:14:34;18.30;;;8.98;;
50683;SDS011;36654;45.042;38.994;2024-01-11T02:17:02;20.05;;;9.70;;
50683;SDS011;36654;45.042;38.994;2024-01-11T02:19:28;17.90;;;8.38;;
50683;SDS011;36654;45.042;38.994;2024-01-11T02:21:53;17.00;;;8.15;;
50683;SDS011;36654;45.042;38.994;2024-01-11T02:24:19;19.20;;;8.23;;
50683;SDS011;36654;45.042;38.994;2024-01-11T02:26:59;19.05;;;9.63;;
50683;SDS011;36654;45.042;38.994;2024-01-11T02:29:28;18.00;;;8.88;;
50683;SDS011;36654;45.042;38.994;2024-01-11T02:31:58;18.17;;;8.05;;
50683;SDS011;36654;45.042;38.994;2024-01-11T02:34:27;19.27;;;9.07;;
50683;SDS011;36654;45.042;38.994;2024-01-11T02:36:54;16.77;;;8.15;;
50683;SDS011;36654;45.042;38.994;2024-01-11T02:39:20;17.55;;;8.35;;
50683;SDS011;36654;45.042;38.994;2024-01-11T02:41:49;18.95;;;9.20;;
50683;SDS011;36654;45.042;38.994;2024-01-11T02:44:16;19.13;;;9.63;;
50683;SDS011;36654;45.042;38.994;2024-01-11T02:46:42;15.88;;;8.20;;
50683;SDS011;36654;45.042;38.994;2024-01-11T02:49:08;17.33;;;8.25;;
50683;SDS011;36654;45.042;38.994;2024-01-11T02:51:33;17.50;;;8.32;;
50683;SDS011;36654;45.042;38.994;2024-01-11T02:54:00;17.92;;;8.30;;
50683;SDS011;36654;45.042;38.994;2024-01-11T02:56:26;17.77;;;8.55;;
50683;SDS011;36654;45.042;38.994;2024-01-11T02:58:52;22.77;;;8.80;;
50683;SDS011;36654;45.042;38.994;2024-01-11T03:01:17;17.33;;;8.90;;
50683;SDS011;36654;45.042;38.994;2024-01-11T03:03:43;21.35;;;9.88;;
50683;SDS011;36654;45.042;38.994;2024-01-11T03:06:08;18.42;;;9.00;;
50683;SDS011;36654;45.042;38.994;2024-01-11T03:08:34;17.92;;;8.23;;
50683;SDS011;36654;45.042;38.994;2024-01-11T03:11:00;18.23;;;8.20;;
50683;SDS011;36654;45.042;38.994;2024-01-11T03:13:26;19.45;;;9.18;;
50683;SDS011;36654;45.042;38.994;2024-01-11T03:15:52;19.70;;;8.73;;
50683;SDS011;36654;45.042;38.994;2024-01-11T03:18:18;23.48;;;10.07;;
50683;SDS011;36654;45.042;38.994;2024-01-11T03:20:44;17.65;;;8.63;;
50683;SDS011;36654;45.042;38.994;2024-01-11T03:23:09;20.40;;;9.57;;
50683;SDS011;36654;45.042;38.994;2024-01-11T03:25:35;19.52;;;8.38;;
50683;SDS011;36654;45.042;38.994;2024-01-11T03:28:00;15.68;;;8.20;;
50683;SDS011;36654;45.042;38.994;2024-01-11T03:30:26;18.70;;;8.55;;
50683;SDS011;36654;45.042;38.994;2024-01-11T03:32:52;18.77;;;8.40;;
50683;SDS011;36654;45.042;38.994;2024-01-11T03:35:18;21.10;;;8.60;;
50683;SDS011;36654;45.042;38.994;2024-01-11T03:37:44;15.82;;;8.07;;
50683;SDS011;36654;45.042;38.994;2024-01-11T03:40:10;20.73;;;10.50;;
50683;SDS011;36654;45.042;38.994;2024-01-11T03:42:36;21.65;;;9.45;;
50683;SDS011;36654;45.042;38.994;2024-01-11T03:45:01;20.70;;;10.52;;
50683;SDS011;36654;45.042;38.994;2024-01-11T03:47:28;19.55;;;9.40;;
50683;SDS011;36654;45.042;38.994;2024-01-11T03:49:54;22.55;;;10.75;;
50683;SDS011;36654;45.042;38.994;2024-01-11T03:52:19;21.20;;;10.27;;
50683;SDS011;36654;45.042;38.994;2024-01-11T03:54:45;23.70;;;11.50;;
50683;SDS011;36654;45.042;38.994;2024-01-11T03:57:11;23.90;;;12.20;;
50683;SDS011;36654;45.042;38.994;2024-01-11T03:59:37;21.33;;;11.35;;
50683;SDS011;36654;45.042;38.994;2024-01-11T04:02:02;25.13;;;10.25;;
50683;SDS011;36654;45.042;38.994;2024-01-11T04:04:28;22.77;;;9.57;;
50683;SDS011;36654;45.042;38.994;2024-01-11T04:06:54;22.58;;;11.75;;
50683;SDS011;36654;45.042;38.994;2024-01-11T04:09:19;22.67;;;10.75;;
50683;SDS011;36654;45.042;38.994;2024-01-11T04:11:45;26.35;;;11.63;;
50683;SDS011;36654;45.042;38.994;2024-01-11T04:14:11;23.00;;;10.15;;
50683;SDS011;36654;45.042;38.994;2024-01-11T04:16:43;23.02;;;11.25;;
50683;SDS011;36654;45.042;38.994;2024-01-11T04:19:08;25.02;;;10.88;;
50683;SDS011;36654;45.042;38.994;2024-01-11T04:21:34;25.45;;;11.00;;
50683;SDS011;36654;45.042;38.994;2024-01-11T04:24:02;23.17;;;12.38;;
50683;SDS011;36654;45.042;38.994;2024-01-11T04:26:28;20.65;;;9.80;;
50683;SDS011;36654;45.042;38.994;2024-01-11T04:28:53;23.73;;;9.85;;
50683;SDS011;36654;45.042;38.994;2024-01-11T04:31:19;23.75;;;10.35;;
50683;SDS011;36654;45.042;38.994;2024-01-11T04:33:45;22.70;;;10.15;;
50683;SDS011;36654;45.042;38.994;2024-01-11T04:36:11;19.33;;;9.13;;
50683;SDS011;36654;45.042;38.994;2024-01-11T04:38:38;18.63;;;9.20;;
50683;SDS011;36654;45.042;38.994;2024-01-11T04:41:10;14.02;;;7.93;;
50683;SDS011;36654;45.042;38.994;2024-01-11T04:43:39;21.08;;;9.57;;
50683;SDS011;36654;45.042;38.994;2024-01-11T04:46:13;23.67;;;9.90;;
50683;SDS011;36654;45.042;38.994;2024-01-11T04:51:08;22.23;;;10.13;;
50683;SDS011;36654;45.042;38.994;2024-01-11T04:53:36;27.20;;;11.38;;
50683;SDS011;36654;45.042;38.994;2024-01-11T04:56:05;25.48;;;10.48;;
50683;SDS011;36654;45.042;38.994;2024-01-11T04:58:32;24.75;;;10.52;;
50683;SDS011;36654;45.042;38.994;2024-01-11T05:00:58;23.25;;;10.57;;
50683;SDS011;36654;45.042;38.994;2024-01-11T05:03:23;24.08;;;10.82;;
50683;SDS011;36654;45.042;38.994;2024-01-11T05:05:49;27.20;;;11.85;;
50683;SDS011;36654;45.042;38.994;2024-01-11T05:08:15;24.85;;;10.70;;
50683;SDS011;36654;45.042;38.994;2024-01-11T05:10:40;24.25;;;11.02;;
50683;SDS011;36654;45.042;38.994;2024-01-11T05:13:06;23.00;;;9.85;;
50683;SDS011;36654;45.042;38.994;2024-01-11T05:15:31;23.48;;;9.95;;
50683;SDS011;36654;45.042;38.994;2024-01-11T05:17:57;24.30;;;9.52;;
50683;SDS011;36654;45.042;38.994;2024-01-11T05:20:23;20.90;;;9.07;;
50683;SDS011;36654;45.042;38.994;2024-01-11T05:22:49;23.35;;;9.77;;
50683;SDS011;36654;45.042;38.994;2024-01-11T05:25:15;22.35;;;9.13;;
50683;SDS011;36654;45.042;38.994;2024-01-11T05:27:40;21.42;;;8.93;;
50683;SDS011;36654;45.042;38.994;2024-01-11T05:30:06;17.30;;;8.38;;
50683;SDS011;36654;45.042;38.994;2024-01-11T05:32:32;18.60;;;7.82;;
50683;SDS011;36654;45.042;38.994;2024-01-11T05:34:58;14.60;;;6.97;;
50683;SDS011;36654;45.042;38.994;2024-01-11T05:37:23;16.50;;;7.55;;
50683;SDS011;36654;45.042;38.994;2024-01-11T05:39:49;15.75;;;7.43;;
50683;SDS011;36654;45.042;38.994;2024-01-11T05:42:15;12.80;;;6.82;;
50683;SDS011;36654;45.042;38.994;2024-01-11T05:44:40;18.17;;;8.13;;
50683;SDS011;36654;45.042;38.994;2024-01-11T05:47:06;17.33;;;7.40;;
50683;SDS011;36654;45.042;38.994;2024-01-11T05:49:32;17.88;;;8.40;;
50683;SDS011;36654;45.042;38.994;2024-01-11T05:51:57;16.23;;;8.13;;
50683;SDS011;36654;45.042;38.994;2024-01-11T05:54:23;18.10;;;8.10;;
50683;SDS011;36654;45.042;38.994;2024-01-11T05:56:49;15.88;;;7.82;;
50683;SDS011;36654;45.042;38.994;2024-01-11T05:59:17;21.55;;;8.95;;
50683;SDS011;36654;45.042;38.994;2024-01-11T06:01:43;16.65;;;8.30;;
50683;SDS011;36654;45.042;38.994;2024-01-11T06:04:09;17.75;;;8.27;;
50683;SDS011;36654;45.042;38.994;2024-01-11T06:06:35;20.05;;;9.48;;
50683;SDS011;36654;45.042;38.994;2024-01-11T06:09:00;18.23;;;8.77;;
50683;SDS011;36654;45.042;38.994;2024-01-11T06:11:29;20.40;;;8.48;;
50683;SDS011;36654;45.042;38.994;2024-01-11T06:13:55;19.58;;;8.52;;
50683;SDS011;36654;45.042;38.994;2024-01-11T06:16:20;22.88;;;10.02;;
50683;SDS011;36654;45.042;38.994;2024-01-11T06:18:46;19.88;;;9.65;;
50683;SDS011;36654;45.042;38.994;2024-01-11T06:21:12;21.20;;;9.75;;
50683;SDS011;36654;45.042;38.994;2024-01-11T06:23:37;22.88;;;10.68;;
50683;SDS011;36654;45.042;38.994;2024-01-11T06:26:03;22.02;;;8.77;;
50683;SDS011;36654;45.042;38.994;2024-01-11T06:28:29;20.90;;;8.98;;
50683;SDS011;36654;45.042;38.994;2024-01-11T06:30:55;18.85;;;8.20;;
50683;SDS011;36654;45.042;38.994;2024-01-11T06:33:24;20.83;;;10.02;;
50683;SDS011;36654;45.042;38.994;2024-01-11T06:35:49;20.77;;;9.43;;
50683;SDS011;36654;45.042;38.994;2024-01-11T06:38:15;20.30;;;8.80;;
50683;SDS011;36654;45.042;38.994;2024-01-11T06:40:41;24.15;;;10.00;;
50683;SDS011;36654;45.042;38.994;2024-01-11T06:43:06;21.85;;;10.40;;
50683;SDS011;36654;45.042;38.994;2024-01-11T06:45:32;25.40;;;11.85;;
50683;SDS011;36654;45.042;38.994;2024-01-11T06:47:57;24.77;;;11.10;;
50683;SDS011;36654;45.042;38.994;2024-01-11T06:50:23;26.15;;;12.10;;
50683;SDS011;36654;45.042;38.994;2024-01-11T06:52:49;25.50;;;11.35;;
50683;SDS011;36654;45.042;38.994;2024-01-11T06:55:15;20.58;;;9.18;;
50683;SDS011;36654;45.042;38.994;2024-01-11T06:57:40;19.48;;;8.80;;
50683;SDS011;36654;45.042;38.994;2024-01-11T07:00:06;21.58;;;9.05;;
50683;SDS011;36654;45.042;38.994;2024-01-11T07:02:32;19.70;;;9.80;;
50683;SDS011;36654;45.042;38.994;2024-01-11T07:04:58;22.20;;;10.20;;
50683;SDS011;36654;45.042;38.994;2024-01-11T07:07:23;19.95;;;9.45;;
50683;SDS011;36654;45.042;38.994;2024-01-11T07:09:49;20.40;;;9.57;;
50683;SDS011;36654;45.042;38.994;2024-01-11T07:12:15;19.08;;;8.88;;
50683;SDS011;36654;45.042;38.994;2024-01-11T07:14:42;23.45;;;10.50;;
50683;SDS011;36654;45.042;38.994;2024-01-11T07:17:07;24.05;;;10.52;;
50683;SDS011;36654;45.042;38.994;2024-01-11T07:19:33;24.83;;;10.07;;
50683;SDS011;36654;45.042;38.994;2024-01-11T07:21:58;25.95;;;10.25;;
50683;SDS011;36654;45.042;38.994;2024-01-11T07:24:24;23.15;;;10.88;;
50683;SDS011;36654;45.042;38.994;2024-01-11T07:26:50;23.60;;;10.20;;
50683;SDS011;36654;45.042;38.994;2024-01-11T07:29:15;25.00;;;9.52;;
50683;SDS011;36654;45.042;38.994;2024-01-11T07:31:41;30.83;;;11.93;;
50683;SDS011;36654;45.042;38.994;2024-01-11T07:34:07;26.42;;;10.77;;
50683;SDS011;36654;45.042;38.994;2024-01-11T07:36:32;27.58;;;11.52;;
50683;SDS011;36654;45.042;38.994;2024-01-11T07:38:58;28.48;;;11.95;;
50683;SDS011;36654;45.042;38.994;2024-01-11T07:41:24;25.92;;;12.32;;
50683;SDS011;36654;45.042;38.994;2024-01-11T07:43:49;24.77;;;10.75;;
50683;SDS011;36654;45.042;38.994;2024-01-11T07:46:15;26.38;;;11.77;;
50683;SDS011;36654;45.042;38.994;2024-01-11T07:48:41;25.42;;;11.25;;
50683;SDS011;36654;45.042;38.994;2024-01-11T07:51:07;25.63;;;11.27;;
50683;SDS011;36654;45.042;38.994;2024-01-11T07:53:32;30.25;;;12.07;;
50683;SDS011;36654;45.042;38.994;2024-01-11T07:55:58;26.55;;;12.07;;
50683;SDS011;36654;45.042;38.994;2024-01-11T07:58:24;27.08;;;12.32;;
50683;SDS011;36654;45.042;38.994;2024-01-11T08:00:49;30.23;;;12.82;;
50683;SDS011;36654;45.042;38.994;2024-01-11T08:03:15;27.08;;;12.18;;
50683;SDS011;36654;45.042;38.994;2024-01-11T08:05:41;28.30;;;11.48;;
50683;SDS011;36654;45.042;38.994;2024-01-11T08:08:08;31.40;;;10.85;;
50683;SDS011;36654;45.042;38.994;2024-01-11T08:10:33;24.23;;;11.07;;
50683;SDS011;36654;45.042;38.994;2024-01-11T08:12:59;30.00;;;10.52;;
50683;SDS011;36654;45.042;38.994;2024-01-11T08:15:25;23.10;;;10.55;;
50683;SDS011;36654;45.042;38.994;2024-01-11T08:17:51;25.95;;;11.07;;
50683;SDS011;36654;45.042;38.994;2024-01-11T08:20:16;19.83;;;9.48;;
50683;SDS011;36654;45.042;38.994;2024-01-11T08:22:42;21.95;;;9.65;;
50683;SDS011;36654;45.042;38.994;2024-01-11T08:25:13;18.40;;;8.65;;
50683;SDS011;36654;45.042;38.994;2024-01-11T08:27:39;19.48;;;9.15;;
50683;SDS011;36654;45.042;38.994;2024-01-11T08:30:06;19.65;;;8.35;;
50683;SDS011;36654;45.042;38.994;2024-01-11T08:32:33;15.32;;;7.90;;
50683;SDS011;36654;45.042;38.994;2024-01-11T08:35:04;18.55;;;9.13;;
50683;SDS011;36654;45.042;38.994;2024-01-11T08:37:31;16.77;;;8.63;;
50683;SDS011;36654;45.042;38.994;2024-01-11T08:39:57;17.98;;;8.85;;
50683;SDS011;36654;45.042;38.994;2024-01-11T08:42:23;19.08;;;8.25;;
50683;SDS011;36654;45.042;38.994;2024-01-11T08:44:49;22.08;;;9.32;;
50683;SDS011;36654;45.042;38.994;2024-01-11T08:47:14;20.20;;;9.45;;
50683;SDS011;36654;45.042;38.994;2024-01-11T08:49:40;19.85;;;9.20;;
50683;SDS011;36654;45.042;38.994;2024-01-11T08:52:05;15.95;;;8.00;;
50683;SDS011;36654;45.042;38.994;2024-01-11T08:54:33;16.83;;;8.18;;
50683;SDS011;36654;45.042;38.994;2024-01-11T08:56:59;18.45;;;9.15;;
50683;SDS011;36654;45.042;38.994;2024-01-11T08:59:25;17.92;;;7.43;;
50683;SDS011;36654;45.042;38.994;2024-01-11T09:01:57;20.55;;;8.45;;
50683;SDS011;36654;45.042;38.994;2024-01-11T09:04:22;18.02;;;8.50;;
50683;SDS011;36654;45.042;38.994;2024-01-11T09:06:48;16.13;;;7.95;;
50683;SDS011;36654;45.042;38.994;2024-01-11T09:09:14;14.48;;;6.93;;
50683;SDS011;36654;45.042;38.994;2024-01-11T09:11:40;14.68;;;7.03;;
50683;SDS011;36654;45.042;38.994;2024-01-11T09:14:09;15.60;;;7.72;;
50683;SDS011;36654;45.042;38.994;2024-01-11T09:16:36;13.25;;;6.70;;
50683;SDS011;36654;45.042;38.994;2024-01-11T09:19:05;12.40;;;6.57;;
50683;SDS011;36654;45.042;38.994;2024-01-11T09:21:31;12.15;;;4.95;;
50683;SDS011;36654;45.042;38.994;2024-01-11T09:23:57;10.70;;;6.35;;
50683;SDS011;36654;45.042;38.994;2024-01-11T09:26:22;11.02;;;6.05;;
50683;SDS011;36654;45.042;38.994;2024-01-11T09:28:51;8.45;;;4.70;;
50683;SDS011;36654;45.042;38.994;2024-01-11T09:31:16;10.30;;;5.47;;
50683;SDS011;36654;45.042;38.994;2024-01-11T09:33:42;10.55;;;5.80;;
50683;SDS011;36654;45.042;38.994;2024-01-11T09:36:10;12.23;;;6.20;;
50683;SDS011;36654;45.042;38.994;2024-01-11T09:38:37;9.93;;;5.03;;
50683;SDS011;36654;45.042;38.994;2024-01-11T09:41:10;8.90;;;5.35;;
50683;SDS011;36654;45.042;38.994;2024-01-11T09:43:38;9.80;;;5.28;;
50683;SDS011;36654;45.042;38.994;2024-01-11T09:46:06;7.60;;;4.70;;
50683;SDS011;36654;45.042;38.994;2024-01-11T09:48:35;10.35;;;4.95;;
50683;SDS011;36654;45.042;38.994;2024-01-11T09:51:03;7.43;;;4.80;;
50683;SDS011;36654;45.042;38.994;2024-01-11T09:55:58;8.45;;;4.93;;
50683;SDS011;36654;45.042;38.994;2024-01-11T09:58:25;9.20;;;4.78;;
50683;SDS011;36654;45.042;38.994;2024-01-11T10:00:54;9.55;;;4.78;;
50683;SDS011;36654;45.042;38.994;2024-01-11T10:03:22;9.40;;;4.95;;
50683;SDS011;36654;45.042;38.994;2024-01-11T10:05:49;5.95;;;3.85;;
50683;SDS011;36654;45.042;38.994;2024-01-11T10:08:18;8.18;;;4.82;;
50683;SDS011;36654;45.042;38.994;2024-01-11T10:10:46;7.75;;;4.28;;
50683;SDS011;36654;45.042;38.994;2024-01-11T10:13:12;11.45;;;5.05;;
50683;SDS011;36654;45.042;38.994;2024-01-11T10:15:40;7.22;;;4.07;;
50683;SDS011;36654;45.042;38.994;2024-01-11T10:18:06;8.52;;;4.43;;
50683;SDS011;36654;45.042;38.994;2024-01-11T10:20:32;9.25;;;4.63;;
50683;SDS011;36654;45.042;38.994;2024-01-11T10:23:02;8.35;;;4.93;;
50683;SDS011;36654;45.042;38.994;2024-01-11T10:25:28;8.13;;;4.72;;
50683;SDS011;36654;45.042;38.994;2024-01-11T10:27:54;8.18;;;4.15;;
50683;SDS011;36654;45.042;38.994;2024-01-11T10:30:20;7.50;;;4.35;;
50683;SDS011;36654;45.042;38.994;2024-01-11T10:32:49;7.53;;;4.07;;
50683;SDS011;36654;45.042;38.994;2024-01-11T10:35:15;7.72;;;3.90;;
50683;SDS011;36654;45.042;38.994;2024-01-11T10:37:43;5.30;;;3.30;;
50683;SDS011;36654;45.042;38.994;2024-01-11T10:40:09;7.85;;;4.25;;
50683;SDS011;36654;45.042;38.994;2024-01-11T10:42:49;8.25;;;4.10;;
50683;SDS011;36654;45.042;38.994;2024-01-11T10:45:23;8.82;;;4.70;;
50683;SDS011;36654;45.042;38.994;2024-01-11T10:47:51;7.60;;;4.50;;
50683;SDS011;36654;45.042;38.994;2024-01-11T10:50:19;8.85;;;4.63;;
50683;SDS011;36654;45.042;38.994;2024-01-11T10:52:56;9.77;;;4.47;;
50683;SDS011;36654;45.042;38.994;2024-01-11T10:55:32;8.98;;;4.80;;
50683;SDS011;36654;45.042;38.994;2024-01-11T10:58:00;8.98;;;4.75;;
50683;SDS011;36654;45.042;38.994;2024-01-11T11:00:28;13.27;;;6.13;;
50683;SDS011;36654;45.042;38.994;2024-01-11T11:02:54;8.18;;;4.03;;
50683;SDS011;36654;45.042;38.994;2024-01-11T11:05:21;7.78;;;4.30;;
50683;SDS011;36654;45.042;38.994;2024-01-11T11:07:51;15.57;;;5.85;;
50683;SDS011;36654;45.042;38.994;2024-01-11T11:10:18;8.02;;;4.40;;
50683;SDS011;36654;45.042;38.994;2024-01-11T11:12:45;7.43;;;3.60;;
50683;SDS011;36654;45.042;38.994;2024-01-11T11:15:12;5.53;;;2.92;;
50683;SDS011;36654;45.042;38.994;2024-01-11T11:17:41;9.60;;;4.07;;
50683;SDS011;36654;45.042;38.994;2024-01-11T11:20:09;5.70;;;3.78;;
50683;SDS011;36654;45.042;38.994;2024-01-11T11:22:41;6.18;;;3.97;;
50683;SDS011;36654;45.042;38.994;2024-01-11T11:25:08;7.93;;;4.15;;
50683;SDS011;36654;45.042;38.994;2024-01-11T11:27:35;7.63;;;4.35;;
50683;SDS011;36654;45.042;38.994;2024-01-11T11:30:02;7.25;;;4.07;;
50683;SDS011;36654;45.042;38.994;2024-01-11T11:32:36;5.55;;;4.15;;
50683;SDS011;36654;45.042;38.994;2024-01-11T11:35:03;6.82;;;3.88;;
50683;SDS011;36654;45.042;38.994;2024-01-11T11:37:29;9.40;;;3.80;;
50683;SDS011;36654;45.042;38.994;2024-01-11T11:39:57;6.32;;;3.33;;
50683;SDS011;36654;45.042;38.994;2024-01-11T11:42:24;8.40;;;5.03;;
50683;SDS011;36654;45.042;38.994;2024-01-11T11:44:51;7.57;;;4.45;;
50683;SDS011;36654;45.042;38.994;2024-01-11T11:47:20;7.70;;;4.15;;
50683;SDS011;36654;45.042;38.994;2024-01-11T11:52:33;7.57;;;4.35;;
50683;SDS011;36654;45.042;38.994;2024-01-11T11:55:02;11.40;;;4.50;;
50683;SDS011;36654;45.042;38.994;2024-01-11T11:57:29;13.18;;;5.25;;
50683;SDS011;36654;45.042;38.994;2024-01-11T11:59:57;7.00;;;4.22;;
50683;SDS011;36654;45.042;38.994;2024-01-11T12:02:24;8.57;;;4.50;;
50683;SDS011;36654;45.042;38.994;2024-01-11T12:04:52;5.15;;;2.90;;
50683;SDS011;36654;45.042;38.994;2024-01-11T12:07:19;7.75;;;3.17;;
50683;SDS011;36654;45.042;38.994;2024-01-11T12:09:46;2.65;;;2.25;;
50683;SDS011;36654;45.042;38.994;2024-01-11T12:12:12;3.75;;;1.88;;
50683;SDS011;36654;45.042;38.994;2024-01-11T12:14:38;1.88;;;1.58;;
50683;SDS011;36654;45.042;38.994;2024-01-11T12:17:05;1.85;;;1.67;;
50683;SDS011;36654;45.042;38.994;2024-01-11T12:19:31;4.43;;;1.63;;
50683;SDS011;36654;45.042;38.994;2024-01-11T12:21:57;1.88;;;1.48;;
50683;SDS011;36654;45.042;38.994;2024-01-11T12:24:23;2.63;;;1.35;;
50683;SDS011;36654;45.042;38.994;2024-01-11T12:26:49;1.48;;;1.38;;
50683;SDS011;36654;45.042;38.994;2024-01-11T12:29:17;1.30;;;1.20;;
50683;SDS011;36654;45.042;38.994;2024-01-11T12:31:43;1.30;;;1.20;;
50683;SDS011;36654;45.042;38.994;2024-01-11T12:34:10;1.42;;;1.15;;
50683;SDS011;36654;45.042;38.994;2024-01-11T12:36:37;2.08;;;1.33;;
50683;SDS011;36654;45.042;38.994;2024-01-11T12:39:03;1.40;;;1.25;;
50683;SDS011;36654;45.042;38.994;2024-01-11T12:41:33;1.67;;;1.58;;
50683;SDS011;36654;45.042;38.994;2024-01-11T12:43:59;2.08;;;1.27;;
50683;SDS011;36654;45.042;38.994;2024-01-11T12:46:25;1.50;;;1.40;;
50683;SDS011;36654;45.042;38.994;2024-01-11T12:48:51;2.35;;;1.70;;
50683;SDS011;36654;45.042;38.994;2024-01-11T12:51:17;3.05;;;1.52;;
50683;SDS011;36654;45.042;38.994;2024-01-11T12:53:46;2.00;;;1.70;;
50683;SDS011;36654;45.042;38.994;2024-01-11T12:56:15;2.35;;;1.42;;
50683;SDS011;36654;45.042;38.994;2024-01-11T12:58:41;1.40;;;1.30;;
50683;SDS011;36654;45.042;38.994;2024-01-11T13:01:07;2.28;;;1.50;;
50683;SDS011;36654;45.042;38.994;2024-01-11T13:03:37;2.25;;;1.35;;
50683;SDS011;36654;45.042;38.994;2024-01-11T13:06:04;6.15;;;1.70;;
50683;SDS011;36654;45.042;38.994;2024-01-11T13:08:31;2.17;;;1.73;;
50683;SDS011;36654;45.042;38.994;2024-01-11T13:10:57;2.88;;;1.80;;
50683;SDS011;36654;45.042;38.994;2024-01-11T13:13:23;2.63;;;1.60;;
50683;SDS011;36654;45.042;38.994;2024-01-11T13:15:49;3.92;;;1.88;;
50683;SDS011;36654;45.042;38.994;2024-01-11T13:18:16;1.92;;;1.70;;
50683;SDS011;36654;45.042;38.994;2024-01-11T13:20:41;1.63;;;1.52;;
50683;SDS011;36654;45.042;38.994;2024-01-11T13:23:11;2.03;;;1.83;;
50683;SDS011;36654;45.042;38.994;2024-01-11T13:25:41;2.28;;;1.77;;
50683;SDS011;36654;45.042;38.994;2024-01-11T13:28:08;3.83;;;2.25;;
50683;SDS011;36654;45.042;38.994;2024-01-11T13:30:35;3.40;;;2.35;;
50683;SDS011;36654;45.042;38.994;2024-01-11T13:33:02;2.60;;;2.08;;
50683;SDS011;36654;45.042;38.994;2024-01-11T13:35:28;2.05;;;1.85;;
50683;SDS011;36654;45.042;38.994;2024-01-11T13:37:54;9.10;;;2.72;;
50683;SDS011;36654;45.042;38.994;2024-01-11T13:40:20;4.20;;;2.00;;
50683;SDS011;36654;45.042;38.994;2024-01-11T13:42:46;2.25;;;1.85;;
50683;SDS011;36654;45.042;38.994;2024-01-11T13:45:11;2.25;;;1.73;;
50683;SDS011;36654;45.042;38.994;2024-01-11T13:47:38;3.60;;;2.17;;
50683;SDS011;36654;45.042;38.994;2024-01-11T13:50:04;5.40;;;1.90;;
50683;SDS011;36654;45.042;38.994;2024-01-11T13:52:30;2.55;;;1.55;;
50683;SDS011;36654;45.042;38.994;2024-01-11T13:54:55;4.22;;;2.35;;
50683;SDS011;36654;45.042;38.994;2024-01-11T13:57:21;2.40;;;1.80;;
50683;SDS011;36654;45.042;38.994;2024-01-11T13:59:47;2.50;;;2.05;;
50683;SDS011;36654;45.042;38.994;2024-01-11T14:02:12;2.95;;;1.92;;
50683;SDS011;36654;45.042;38.994;2024-01-11T14:04:38;2.83;;;1.90;;
50683;SDS011;36654;45.042;38.994;2024-01-11T14:07:04;1.58;;;1.45;;
50683;SDS011;36654;45.042;38.994;2024-01-11T14:09:31;5.15;;;2.50;;
50683;SDS011;36654;45.042;38.994;2024-01-11T14:11:56;1.27;;;1.17;;
50683;SDS011;36654;45.042;38.994;2024-01-11T14:14:22;1.75;;;1.40;;
50683;SDS011;36654;45.042;38.994;2024-01-11T14:16:48;1.60;;;1.20;;
50683;SDS011;36654;45.042;38.994;2024-01-11T14:19:14;2.10;;;1.60;;
50683;SDS011;36654;45.042;38.994;2024-01-11T14:21:39;1.67;;;1.58;;
50683;SDS011;36654;45.042;38.994;2024-01-11T14:24:05;1.33;;;1.23;;